createdAt,value
2018-11-12T00:01:34.057Z,9.34
2018-11-12T00:04:02.347Z,9.34
2018-11-12T00:06:30.762Z,9.36
2018-11-12T00:08:58.956Z,9.39
2018-11-12T00:11:27.097Z,9.40
2018-11-12T00:13:55.245Z,9.39
2018-11-12T00:16:23.379Z,9.44
2018-11-12T00:18:51.511Z,9.46
2018-11-12T00:21:19.643Z,9.39
2018-11-12T00:23:47.895Z,9.39
2018-11-12T00:26:16.037Z,9.47
2018-11-12T00:28:44.170Z,9.65
2018-11-12T00:31:12.517Z,9.50
2018-11-12T00:33:40.686Z,9.55
2018-11-12T00:36:08.874Z,9.47
2018-11-12T00:38:37.072Z,9.65
2018-11-12T00:41:05.234Z,9.57
2018-11-12T00:43:33.407Z,9.58
2018-11-12T00:46:01.863Z,9.46
2018-11-12T00:48:30.161Z,9.70
2018-11-12T00:50:58.984Z,9.90
2018-11-12T00:53:27.189Z,9.89
2018-11-12T00:55:55.372Z,9.73
2018-11-12T00:58:23.596Z,9.83
2018-11-12T01:00:51.805Z,9.96
2018-11-12T01:03:23.001Z,9.71
2018-11-12T01:05:51.355Z,9.67
2018-11-12T01:08:19.653Z,9.56
2018-11-12T01:10:48.059Z,9.58
2018-11-12T01:13:16.327Z,9.63
2018-11-12T01:15:44.623Z,9.52
2018-11-12T01:18:12.800Z,9.44
2018-11-12T01:20:41.021Z,9.39
2018-11-12T01:23:09.224Z,9.45
2018-11-12T01:25:37.481Z,9.57
2018-11-12T01:28:05.716Z,9.51
2018-11-12T01:30:33.911Z,9.51
2018-11-12T01:33:01.993Z,9.69
2018-11-12T01:35:30.189Z,9.59
2018-11-12T01:37:58.332Z,9.58
2018-11-12T01:40:26.454Z,9.60
2018-11-12T01:42:54.665Z,9.54
2018-11-12T01:45:22.794Z,9.56
2018-11-12T01:47:51.277Z,9.45
2018-11-12T01:50:20.162Z,9.52
2018-11-12T01:52:49.060Z,9.57
2018-11-12T01:55:18.267Z,9.48
2018-11-12T01:57:46.546Z,9.61
2018-11-12T02:00:20.692Z,9.65
2018-11-12T02:02:50.069Z,9.62
2018-11-12T02:05:18.653Z,9.56
2018-11-12T02:07:46.800Z,9.58
2018-11-12T02:10:16.281Z,9.53
2018-11-12T02:12:44.635Z,9.50
2018-11-12T02:15:16.836Z,9.43
2018-11-12T02:17:46.118Z,9.48
2018-11-12T02:20:15.497Z,9.52
2018-11-12T02:22:44.513Z,9.39
2018-11-12T02:25:13.244Z,9.43
2018-11-12T02:27:41.350Z,9.43
2018-11-12T02:30:12.249Z,9.42
2018-11-12T02:32:40.645Z,9.47
2018-11-12T02:35:09.066Z,9.43
2018-11-12T02:37:37.888Z,9.41
2018-11-12T02:40:06.777Z,9.35
2018-11-12T02:42:34.939Z,9.27
2018-11-12T02:45:03.149Z,9.20
2018-11-12T02:47:31.438Z,9.22
2018-11-12T02:49:59.900Z,9.18
2018-11-12T02:52:28.312Z,9.23
2018-11-12T02:54:56.492Z,9.22
2018-11-12T02:57:24.721Z,9.29
2018-11-12T02:59:52.792Z,9.14
2018-11-12T03:02:20.933Z,9.04
2018-11-12T03:04:49.079Z,9.02
2018-11-12T03:07:17.248Z,9.15
2018-11-12T03:09:45.426Z,9.08
2018-11-12T03:12:13.613Z,9.02
2018-11-12T03:14:41.799Z,9.08
2018-11-12T03:17:09.954Z,9.00
2018-11-12T03:19:38.067Z,9.04
2018-11-12T03:22:06.172Z,9.21
2018-11-12T03:24:34.616Z,9.12
2018-11-12T03:27:02.965Z,9.09
2018-11-12T03:29:31.099Z,9.16
2018-11-12T03:31:59.345Z,9.11
2018-11-12T03:34:27.614Z,9.11
2018-11-12T03:36:55.834Z,9.02
2018-11-12T03:39:24.018Z,9.05
2018-11-12T03:41:52.217Z,9.21
2018-11-12T03:44:20.618Z,9.52
2018-11-12T03:46:48.938Z,9.46
2018-11-12T03:49:17.117Z,9.44
2018-11-12T03:51:45.276Z,9.54
2018-11-12T03:54:13.372Z,9.55
2018-11-12T03:56:41.520Z,9.50
2018-11-12T03:59:09.806Z,9.41
2018-11-12T04:01:44.568Z,9.57
2018-11-12T04:04:13.867Z,9.66
2018-11-12T04:06:42.180Z,9.64
2018-11-12T04:09:11.467Z,9.65
2018-11-12T04:11:40.746Z,9.54
2018-11-12T04:14:09.951Z,9.41
2018-11-12T04:16:38.634Z,9.52
2018-11-12T04:19:07.151Z,9.48
2018-11-12T04:21:35.511Z,9.50
2018-11-12T04:24:03.790Z,9.59
2018-11-12T04:26:32.021Z,9.55
2018-11-12T04:29:00.569Z,9.42
2018-11-12T04:31:28.684Z,9.23
2018-11-12T04:33:57.008Z,9.19
2018-11-12T04:36:25.942Z,9.20
2018-11-12T04:38:54.934Z,9.11
2018-11-12T04:41:23.225Z,9.18
2018-11-12T04:43:51.646Z,9.24
2018-11-12T04:46:19.944Z,9.24
2018-11-12T04:48:48.149Z,9.11
2018-11-12T04:51:16.472Z,9.31
2018-11-12T04:53:44.767Z,9.31
2018-11-12T04:56:13.267Z,9.27
2018-11-12T04:58:41.786Z,9.11
2018-11-12T05:01:10.410Z,9.07
2018-11-12T05:03:38.923Z,8.99
2018-11-12T05:06:07.064Z,8.89
2018-11-12T05:08:35.228Z,8.98
2018-11-12T05:11:03.336Z,9.01
2018-11-12T05:13:31.460Z,9.19
2018-11-12T05:15:59.606Z,9.11
2018-11-12T05:18:27.710Z,9.13
2018-11-12T05:20:55.832Z,9.20
2018-11-12T05:23:24.016Z,9.05
2018-11-12T05:25:52.170Z,9.11
2018-11-12T05:28:20.386Z,9.04
2018-11-12T05:30:48.714Z,9.01
2018-11-12T05:33:16.878Z,8.99
2018-11-12T05:35:45.070Z,8.97
2018-11-12T05:38:13.222Z,9.14
2018-11-12T05:40:41.332Z,9.02
2018-11-12T05:43:09.468Z,9.14
2018-11-12T05:45:37.615Z,9.05
2018-11-12T05:48:06.610Z,9.09
2018-11-12T05:50:34.905Z,9.12
2018-11-12T05:53:04.424Z,9.21
2018-11-12T05:55:33.322Z,9.05
2018-11-12T05:58:01.920Z,9.02
2018-11-12T06:00:31.321Z,9.05
2018-11-12T06:03:00.912Z,9.08
2018-11-12T06:05:29.146Z,9.01
2018-11-12T06:07:57.412Z,8.99
2018-11-12T06:10:27.088Z,9.11
2018-11-12T06:12:55.262Z,9.08
2018-11-12T06:15:23.786Z,9.24
2018-11-12T06:17:52.422Z,9.15
2018-11-12T06:20:21.902Z,9.18
2018-11-12T06:22:50.250Z,9.24
2018-11-12T06:25:19.648Z,9.17
2018-11-12T06:27:48.158Z,9.28
2018-11-12T06:30:17.858Z,9.34
2018-11-12T06:32:52.950Z,9.28
2018-11-12T06:35:21.661Z,9.30
2018-11-12T06:37:50.752Z,9.37
2018-11-12T06:40:20.286Z,9.40
2018-11-12T06:42:48.745Z,9.24
2018-11-12T06:45:19.025Z,9.16
2018-11-12T06:47:48.318Z,9.16
2018-11-12T06:50:17.998Z,9.19
2018-11-12T06:52:46.151Z,9.21
2018-11-12T06:55:15.060Z,9.29
2018-11-12T06:57:43.537Z,9.38
2018-11-12T07:00:15.088Z,9.38
2018-11-12T07:02:43.294Z,9.45
2018-11-12T07:05:11.860Z,9.41
2018-11-12T07:07:40.203Z,9.40
2018-11-12T07:10:10.379Z,9.42
2018-11-12T07:12:38.772Z,9.44
2018-11-12T07:15:08.739Z,9.47
2018-11-12T07:17:36.938Z,9.59
2018-11-12T07:20:06.903Z,9.55
2018-11-12T07:22:35.086Z,9.60
2018-11-12T07:25:10.708Z,9.76
2018-11-12T07:27:38.884Z,9.78
2018-11-12T07:30:09.442Z,9.76
2018-11-12T07:32:37.607Z,9.96
2018-11-12T07:35:07.023Z,9.99
2018-11-12T07:37:35.260Z,10.08
2018-11-12T07:40:03.807Z,10.13
2018-11-12T07:42:32.033Z,10.16
2018-11-12T07:45:00.288Z,10.16
2018-11-12T07:47:28.518Z,10.24
2018-11-12T07:49:56.771Z,10.33
2018-11-12T07:52:24.972Z,10.52
2018-11-12T07:54:53.261Z,10.49
2018-11-12T07:57:21.411Z,10.63
2018-11-12T07:59:56.302Z,10.68
2018-11-12T08:02:24.524Z,10.71
2018-11-12T08:04:52.752Z,10.77
2018-11-12T08:07:20.925Z,10.79
2018-11-12T08:09:49.229Z,10.92
2018-11-12T08:12:17.436Z,10.95
2018-11-12T08:14:45.693Z,10.86
2018-11-12T08:17:13.871Z,11.01
2018-11-12T08:19:42.065Z,10.93
2018-11-12T08:22:10.277Z,10.98
2018-11-12T08:24:38.585Z,11.10
2018-11-12T08:27:06.736Z,10.98
2018-11-12T08:29:35.485Z,10.97
2018-11-12T08:32:04.199Z,11.00
2018-11-12T08:34:32.553Z,10.97
2018-11-12T08:37:00.762Z,11.08
2018-11-12T08:39:29.045Z,11.05
2018-11-12T08:41:57.197Z,11.12
2018-11-12T08:44:25.397Z,11.02
2018-11-12T08:46:53.754Z,11.04
2018-11-12T08:49:22.062Z,11.09
2018-11-12T08:51:50.219Z,11.13
2018-11-12T08:54:19.668Z,11.18
2018-11-12T08:56:47.809Z,11.24
2018-11-12T08:59:16.122Z,11.09
2018-11-12T09:01:44.350Z,11.13
2018-11-12T09:04:12.618Z,11.22
2018-11-12T09:06:40.784Z,11.33
2018-11-12T09:09:11.337Z,11.37
2018-11-12T09:11:39.750Z,11.52
2018-11-12T09:14:08.407Z,11.61
2018-11-12T09:16:36.617Z,11.70
2018-11-12T09:19:05.549Z,11.78
2018-11-12T09:21:33.767Z,11.90
2018-11-12T09:24:02.372Z,11.98
2018-11-12T09:26:30.842Z,11.93
2018-11-12T09:28:59.427Z,12.05
2018-11-12T09:31:28.064Z,12.17
2018-11-12T09:36:24.574Z,12.11
2018-11-12T09:38:52.941Z,12.21
2018-11-12T09:41:21.125Z,12.13
2018-11-12T09:43:49.322Z,12.37
2018-11-12T09:46:17.594Z,12.33
2018-11-12T09:48:52.665Z,12.58
2018-11-12T09:51:21.317Z,12.36
2018-11-12T09:53:49.711Z,12.36
2018-11-12T09:56:17.866Z,12.53
2018-11-12T09:58:46.111Z,12.63
2018-11-12T10:01:14.441Z,12.68
2018-11-12T10:03:44.013Z,12.80
2018-11-12T10:06:12.287Z,13.14
2018-11-12T10:08:40.799Z,13.14
2018-11-12T10:11:10.468Z,13.14
2018-11-12T10:13:39.171Z,13.19
2018-11-12T10:16:07.739Z,13.08
2018-11-12T10:18:33.362Z,13.17
2018-11-12T10:21:01.692Z,13.24
2018-11-12T10:23:30.070Z,13.08
2018-11-12T10:25:58.291Z,13.19
2018-11-12T10:28:26.742Z,13.19
2018-11-12T10:30:55.005Z,13.16
2018-11-12T10:33:23.299Z,13.33
2018-11-12T10:35:51.478Z,13.32
2018-11-12T10:38:19.661Z,13.32
2018-11-12T10:40:54.555Z,13.39
2018-11-12T10:43:22.769Z,13.24
2018-11-12T10:45:50.991Z,13.46
2018-11-12T10:48:19.152Z,13.57
2018-11-12T10:50:47.347Z,13.68
2018-11-12T10:53:15.664Z,13.51
2018-11-12T10:55:44.052Z,13.50
2018-11-12T10:58:12.174Z,13.52
2018-11-12T11:00:45.888Z,13.51
2018-11-12T11:03:19.460Z,13.42
2018-11-12T11:05:49.600Z,13.17
2018-11-12T11:08:17.970Z,13.34
2018-11-12T11:10:46.311Z,13.15
2018-11-12T11:13:14.522Z,13.25
2018-11-12T11:15:42.802Z,13.17
2018-11-12T11:18:10.975Z,13.17
2018-11-12T11:20:39.272Z,13.12
2018-11-12T11:23:07.455Z,13.07
2018-11-12T11:25:35.700Z,13.14
2018-11-12T11:28:03.956Z,13.14
2018-11-12T11:30:33.339Z,13.22
2018-11-12T11:33:01.570Z,13.13
2018-11-12T11:35:29.775Z,13.18
2018-11-12T11:37:58.011Z,13.23
2018-11-12T11:40:27.207Z,13.46
2018-11-12T11:42:55.894Z,13.25
2018-11-12T11:45:24.241Z,13.29
2018-11-12T11:47:53.571Z,13.46
2018-11-12T11:50:23.104Z,13.40
2018-11-12T11:52:51.378Z,13.52
2018-11-12T11:55:20.928Z,13.46
2018-11-12T11:57:49.706Z,13.45
2018-11-12T12:00:22.344Z,13.52
2018-11-12T12:02:51.710Z,13.55
2018-11-12T12:05:20.764Z,13.68
2018-11-12T12:07:49.408Z,13.91
2018-11-12T12:10:17.897Z,13.97
2018-11-12T12:12:47.277Z,14.09
2018-11-12T12:15:17.745Z,14.19
2018-11-12T12:17:46.174Z,14.39
2018-11-12T12:20:17.761Z,14.38
2018-11-12T12:22:46.145Z,14.48
2018-11-12T12:25:15.440Z,14.56
2018-11-12T12:27:44.058Z,14.64
2018-11-12T12:30:15.505Z,14.59
2018-11-12T12:32:44.746Z,14.58
2018-11-12T12:35:13.421Z,14.42
2018-11-12T12:37:42.233Z,14.50
2018-11-12T12:40:11.469Z,14.49
2018-11-12T12:42:40.085Z,14.51
2018-11-12T12:45:09.505Z,14.38
2018-11-12T12:47:37.671Z,14.52
2018-11-12T12:50:07.183Z,14.65
2018-11-12T12:52:35.326Z,14.76
2018-11-12T12:55:03.424Z,14.57
2018-11-12T12:57:31.714Z,14.53
2018-11-12T12:59:59.980Z,14.67
2018-11-12T13:02:28.065Z,14.39
2018-11-12T13:04:56.385Z,14.63
2018-11-12T13:07:24.481Z,14.62
2018-11-12T13:09:52.686Z,14.62
2018-11-12T13:12:21.277Z,14.64
2018-11-12T13:14:49.490Z,14.65
2018-11-12T13:17:17.605Z,14.61
2018-11-12T13:19:45.820Z,14.53
2018-11-12T13:22:13.915Z,14.40
2018-11-12T13:24:42.144Z,14.42
2018-11-12T13:27:11.481Z,14.38
2018-11-12T13:29:39.734Z,14.37
2018-11-12T13:32:07.929Z,14.40
2018-11-12T13:34:36.099Z,14.35
2018-11-12T13:37:04.577Z,14.39
2018-11-12T13:39:32.822Z,14.47
2018-11-12T13:42:01.055Z,14.41
2018-11-12T13:44:29.315Z,14.42
2018-11-12T13:46:58.556Z,14.32
2018-11-12T13:49:26.699Z,14.41
2018-11-12T13:51:54.971Z,14.39
2018-11-12T13:54:23.143Z,14.34
2018-11-12T13:56:51.398Z,14.17
2018-11-12T13:59:19.559Z,14.22
2018-11-12T14:01:47.761Z,14.19
2018-11-12T14:04:18.298Z,14.17
2018-11-12T14:06:46.622Z,14.07
2018-11-12T14:09:14.825Z,14.05
2018-11-12T14:11:42.969Z,13.96
2018-11-12T14:14:11.100Z,13.96
2018-11-12T14:16:39.256Z,14.00
2018-11-12T14:19:07.429Z,13.97
2018-11-12T14:21:35.765Z,13.92
2018-11-12T14:24:04.166Z,13.88
2018-11-12T14:26:32.378Z,13.83
2018-11-12T14:29:00.538Z,13.79
2018-11-12T14:31:29.058Z,13.71
2018-11-12T14:33:57.435Z,13.71
2018-11-12T14:36:25.574Z,13.75
2018-11-12T14:38:54.010Z,13.71
2018-11-12T14:41:22.232Z,13.70
2018-11-12T14:43:50.472Z,13.71
2018-11-12T14:46:18.572Z,13.73
2018-11-12T14:48:46.735Z,13.89
2018-11-12T14:51:14.924Z,13.91
2018-11-12T14:53:43.229Z,13.85
2018-11-12T14:56:11.436Z,13.78
2018-11-12T14:58:39.601Z,13.73
2018-11-12T15:01:07.759Z,13.63
2018-11-12T15:03:35.953Z,13.55
2018-11-12T15:06:04.615Z,13.65
2018-11-12T15:08:32.745Z,13.55
2018-11-12T15:11:00.989Z,13.73
2018-11-12T15:13:29.091Z,13.62
2018-11-12T15:15:57.269Z,13.59
2018-11-12T15:18:25.401Z,13.61
2018-11-12T15:20:53.549Z,13.59
2018-11-12T15:23:21.767Z,13.47
2018-11-12T15:25:49.841Z,13.44
2018-11-12T15:28:18.364Z,13.23
2018-11-12T15:30:46.572Z,13.22
2018-11-12T15:33:14.717Z,13.23
2018-11-12T15:35:43.047Z,13.18
2018-11-12T15:38:11.235Z,13.26
2018-11-12T15:40:39.449Z,13.21
2018-11-12T15:43:07.893Z,12.98
2018-11-12T15:45:36.051Z,13.02
2018-11-12T15:48:04.179Z,13.11
2018-11-12T15:50:38.107Z,13.05
2018-11-12T15:53:06.248Z,13.14
2018-11-12T15:55:34.419Z,13.06
2018-11-12T15:58:02.650Z,13.09
2018-11-12T16:00:30.811Z,13.03
2018-11-12T16:02:59.003Z,13.08
2018-11-12T16:05:27.273Z,13.07
2018-11-12T16:07:55.778Z,13.09
2018-11-12T16:10:23.993Z,13.13
2018-11-12T16:12:52.248Z,13.02
2018-11-12T16:15:21.397Z,13.10
2018-11-12T16:17:49.566Z,13.17
2018-11-12T16:20:20.276Z,13.20
2018-11-12T16:22:49.122Z,13.15
2018-11-12T16:25:17.757Z,13.18
2018-11-12T16:27:45.904Z,13.16
2018-11-12T16:30:14.459Z,13.05
2018-11-12T16:32:43.299Z,13.08
2018-11-12T16:35:14.623Z,12.99
2018-11-12T16:37:43.500Z,12.95
2018-11-12T16:40:11.735Z,12.90
2018-11-12T16:42:40.934Z,13.01
2018-11-12T16:45:09.086Z,12.91
2018-11-12T16:47:37.268Z,12.94
2018-11-12T16:50:06.854Z,12.93
2018-11-12T16:52:35.134Z,12.83
2018-11-12T16:55:03.397Z,12.83
2018-11-12T16:57:31.583Z,12.91
2018-11-12T16:59:59.881Z,12.92
2018-11-12T17:02:28.353Z,12.99
2018-11-12T17:04:56.545Z,12.97
2018-11-12T17:07:24.766Z,13.00
2018-11-12T17:09:52.938Z,12.95
2018-11-12T17:12:21.153Z,12.91
2018-11-12T17:14:49.290Z,12.95
2018-11-12T17:17:17.453Z,12.94
2018-11-12T17:19:45.638Z,12.79
2018-11-12T17:22:13.878Z,12.78
2018-11-12T17:24:42.082Z,12.82
2018-11-12T17:27:10.337Z,12.82
2018-11-12T17:29:38.613Z,12.79
2018-11-12T17:32:06.791Z,12.78
2018-11-12T17:34:34.971Z,12.92
2018-11-12T17:37:03.210Z,12.81
2018-11-12T17:39:31.404Z,12.77
2018-11-12T17:41:59.561Z,12.72
2018-11-12T17:44:27.731Z,12.63
2018-11-12T17:46:55.917Z,12.70
2018-11-12T17:49:24.131Z,12.68
2018-11-12T17:51:52.304Z,12.54
2018-11-12T17:54:20.464Z,12.60
2018-11-12T17:56:48.626Z,12.66
2018-11-12T17:59:16.845Z,12.56
2018-11-12T18:01:45.006Z,12.69
2018-11-12T18:04:13.239Z,12.48
2018-11-12T18:06:41.383Z,12.36
2018-11-12T18:09:10.942Z,12.36
2018-11-12T18:11:39.110Z,12.45
2018-11-12T18:14:09.081Z,12.60
2018-11-12T18:16:37.265Z,12.58
2018-11-12T18:19:05.817Z,12.53
2018-11-12T18:21:34.004Z,12.58
2018-11-12T18:24:02.180Z,12.45
2018-11-12T18:26:30.370Z,12.39
2018-11-12T18:28:58.559Z,12.49
2018-11-12T18:31:27.291Z,12.31
2018-11-12T18:33:55.400Z,12.25
2018-11-12T18:36:23.601Z,12.35
2018-11-12T18:38:51.826Z,12.29
2018-11-12T18:41:20.044Z,12.36
2018-11-12T18:43:48.253Z,12.39
2018-11-12T18:46:16.464Z,12.24
2018-11-12T18:48:44.637Z,12.29
2018-11-12T18:51:12.833Z,12.29
2018-11-12T18:53:41.158Z,12.27
2018-11-12T18:56:09.422Z,12.14
2018-11-12T18:58:37.631Z,12.18
2018-11-12T19:01:06.379Z,11.98
2018-11-12T19:03:34.637Z,11.96
2018-11-12T19:06:02.845Z,11.89
2018-11-12T19:08:31.098Z,12.15
2018-11-12T19:10:59.387Z,11.94
2018-11-12T19:13:27.534Z,11.82
2018-11-12T19:15:55.718Z,11.78
2018-11-12T19:18:23.924Z,11.83
2018-11-12T19:20:52.248Z,11.75
2018-11-12T19:23:20.434Z,11.73
2018-11-12T19:25:48.622Z,11.76
2018-11-12T19:28:17.429Z,11.72
2018-11-12T19:30:45.723Z,11.67
2018-11-12T19:33:13.933Z,11.58
2018-11-12T19:35:42.886Z,11.71
2018-11-12T19:38:11.117Z,11.52
2018-11-12T19:40:39.360Z,11.54
2018-11-12T19:43:07.621Z,11.53
2018-11-12T19:45:35.919Z,11.48
2018-11-12T19:48:04.332Z,11.42
2018-11-12T19:50:32.615Z,11.43
2018-11-12T19:53:01.301Z,11.57
2018-11-12T19:55:29.537Z,11.50
2018-11-12T19:57:57.815Z,11.46
2018-11-12T20:00:27.188Z,11.46
2018-11-12T20:02:56.683Z,11.36
2018-11-12T20:05:24.956Z,11.42
2018-11-12T20:07:53.479Z,11.33
2018-11-12T20:10:22.668Z,11.32
2018-11-12T20:12:50.904Z,11.25
2018-11-12T20:15:21.504Z,11.34
2018-11-12T20:17:50.650Z,11.27
2018-11-12T20:20:29.080Z,11.22
2018-11-12T20:22:57.331Z,11.36
2018-11-12T20:25:25.522Z,11.24
2018-11-12T20:28:08.522Z,11.32
2018-11-12T20:30:38.605Z,11.38
2018-11-12T20:33:07.228Z,11.32
2018-11-12T20:35:35.527Z,11.39
2018-11-12T20:38:03.956Z,11.36
2018-11-12T20:40:32.232Z,11.33
2018-11-12T20:43:00.897Z,11.22
2018-11-12T20:45:29.207Z,11.24
2018-11-12T20:47:58.008Z,11.20
2018-11-12T20:50:26.275Z,11.14
2018-11-12T20:52:55.458Z,11.06
2018-11-12T20:55:24.129Z,10.98
2018-11-12T20:57:53.556Z,11.08
2018-11-12T21:00:24.240Z,11.21
2018-11-12T21:02:53.292Z,11.06
2018-11-12T21:05:22.951Z,11.01
2018-11-12T21:07:51.342Z,11.13
2018-11-12T21:10:20.110Z,11.08
2018-11-12T21:12:52.876Z,11.11
2018-11-12T21:15:22.193Z,11.14
2018-11-12T21:17:50.641Z,11.11
2018-11-12T21:20:23.143Z,11.13
2018-11-12T21:22:51.443Z,11.19
2018-11-12T21:25:21.065Z,11.27
2018-11-12T21:27:49.316Z,11.31
2018-11-12T21:30:21.419Z,11.43
2018-11-12T21:32:50.778Z,11.39
2018-11-12T21:35:19.078Z,11.40
2018-11-12T21:37:47.689Z,11.37
2018-11-12T21:40:17.339Z,11.37
2018-11-12T21:42:45.618Z,11.38
2018-11-12T21:45:15.449Z,11.50
2018-11-12T21:47:44.197Z,11.43
2018-11-12T21:50:14.197Z,11.56
2018-11-12T21:52:43.332Z,11.72
2018-11-12T21:55:12.155Z,11.64
2018-11-12T21:57:40.871Z,11.64
2018-11-12T22:00:15.468Z,11.64
2018-11-12T22:02:44.275Z,11.61
2018-11-12T22:05:12.594Z,11.52
2018-11-12T22:07:40.766Z,11.55
2018-11-12T22:10:10.737Z,11.57
2018-11-12T22:12:38.976Z,11.64
2018-11-12T22:15:07.715Z,11.69
2018-11-12T22:17:36.095Z,11.62
2018-11-12T22:20:05.315Z,11.63
2018-11-12T22:22:33.546Z,11.63
2018-11-12T22:25:01.694Z,11.73
2018-11-12T22:27:30.195Z,11.76
2018-11-12T22:29:58.296Z,11.87
2018-11-12T22:32:26.729Z,11.76
2018-11-12T22:34:55.189Z,11.76
2018-11-12T22:37:23.717Z,11.79
2018-11-12T22:39:51.788Z,11.70
2018-11-12T22:42:19.919Z,11.63
2018-11-12T22:44:48.099Z,11.75
2018-11-12T22:47:16.263Z,11.79
2018-11-12T22:49:44.376Z,11.80
2018-11-12T22:52:12.583Z,11.88
2018-11-12T22:54:40.737Z,11.94
2018-11-12T22:57:08.974Z,12.00
2018-11-12T22:59:37.199Z,12.14
2018-11-12T23:02:05.734Z,12.17
2018-11-12T23:04:33.888Z,11.97
2018-11-12T23:07:02.029Z,11.73
2018-11-12T23:09:30.244Z,11.70
2018-11-12T23:11:58.407Z,11.57
2018-11-12T23:14:26.593Z,11.63
2018-11-12T23:16:54.788Z,11.61
2018-11-12T23:19:22.880Z,11.59
2018-11-12T23:21:51.043Z,11.54
2018-11-12T23:24:19.282Z,11.54
2018-11-12T23:26:47.428Z,11.45
2018-11-12T23:29:15.559Z,11.50
2018-11-12T23:31:43.690Z,11.48
2018-11-12T23:34:11.863Z,11.48
2018-11-12T23:36:40.053Z,11.54
2018-11-12T23:39:08.635Z,11.61
2018-11-12T23:41:37.134Z,11.49
2018-11-12T23:44:05.441Z,11.46
2018-11-12T23:46:33.995Z,11.47
2018-11-12T23:49:02.267Z,11.32
2018-11-12T23:51:30.777Z,11.32
2018-11-12T23:53:59.040Z,11.25
2018-11-12T23:56:27.268Z,11.26
2018-11-12T23:58:55.386Z,11.28
